Terminal Aerodrome Forecast
Issued by NWS

Home | Current Version | Previous Version | Text Only | Print | Product List | Glossary On
Versions: 1 2 3 4 5 6 7 8 9 10 11 12 13 14 15 16 17 18 19 20 21 22 23 24
000
FTUS41 KBGM 171100
TAFITH
TAF
KITH 171138Z 1712/1812 VRB04KT P6SM BKN050
     FM171800 25006KT P6SM SKC
      TEMPO 1808/1812 3SM BR=

USA.gov is the U.S. government's official web portal to all federal, state and local government web resources and services.